Lehmann Sound — V2EM3 — position and weather

sailwx.info

Track history (hours):
 
Tides and Currents Weather Stations Pressure Air Temp Water Temp Dewpoint Dewpoint Depression Visibility Wind Speed Wind Dir Waves Ship Positions

Lehmann Sound

Last reported at 2014-Aug-23 03:31 UTC. Time now 2014-Aug-23 05:37 UTC.
Position N 59°41' E 024°10'.

Length 90 m; draft 4.2 m.

Type: Cargo ship. MMSI: 305476000.

Date/timePositionNaut miles runAvg speedWind from/ knotsBaromVisibWave heightAir tempDewpointWater temp
2014-Aug-23 03:31N 59°41' E 024°10'1010.8
2014-Aug-23 02:33N 59°39' E 023°50'1110.5
2014-Aug-23 01:33N 59°36' E 023°30'9 8.8
2014-Aug-23 00:29N 59°37' E 023°12'9 9.8
2014-Aug-22 23:33N 59°45' E 023°03'7 6.9
2014-Aug-22 22:33N 59°49' E 023°15'8 8.5
2014-Aug-22 21:33N 59°56' E 023°22'8 8.3
2014-Aug-22 20:33N 60°03' E 023°31'3 2.5
2014-Aug-22 19:28N 60°06' E 023°33'0 0.0
2014-Aug-22 16:16N 60°06' E 023°33'0 0.0
2014-Aug-22 15:28N 60°06' E 023°33'0 0.0
2014-Aug-22 11:19N 60°06' E 023°33'0 0.0
2014-Aug-22 10:16N 60°06' E 023°33'0 0.0
2014-Aug-22 09:16N 60°06' E 023°33'0 0.0
2014-Aug-22 08:10N 60°06' E 023°33'0 0.0
2014-Aug-22 07:22N 60°06' E 023°33'0 0.0
2014-Aug-22 04:07N 60°06' E 023°33'0 0.0
2014-Aug-22 03:31N 60°06' E 023°33'0 0.0
2014-Aug-22 02:22N 60°06' E 023°33'0 0.0
2014-Aug-22 01:22N 60°06' E 023°33'0 0.0
2014-Aug-22 00:19N 60°06' E 023°33'0 0.0
2014-Aug-21 23:10N 60°06' E 023°33'0 0.0
2014-Aug-21 22:22N 60°06' E 023°33'0 0.0
2014-Aug-21 21:16N 60°06' E 023°33'0 0.0
2014-Aug-21 20:31N 60°06' E 023°33'0 0.0
2014-Aug-21 19:28N 60°06' E 023°33'0 0.0
2014-Aug-21 18:31N 60°06' E 023°33'0 0.0
2014-Aug-21 17:28N 60°06' E 023°33'0 0.0
2014-Aug-21 16:28N 60°06' E 023°33'5 6.1
2014-Aug-21 15:33N 60°01' E 023°28'8 8.3
2014-Aug-21 14:33N 59°54' E 023°19'8 8.1
2014-Aug-21 13:32N 59°48' E 023°08'308 9.5
2014-Aug-20 05:10N 56°00' E 016°37'610.1
2014-Aug-20 04:33N 55°57' E 016°28'2010.1
2014-Aug-20 02:33N 55°47' E 015°56'41 9.9
2014-Aug-19 22:26N 55°28' E 014°54'11 9.7
2014-Aug-19 21:17N 55°22' E 014°37'7 9.8
2014-Aug-19 20:33N 55°17' E 014°28'10 9.4
2014-Aug-19 19:32N 55°11' E 014°14'2510.1
2014-Aug-19 17:06N 55°12' E 013°31'610.3
2014-Aug-19 16:33N 55°13' E 013°21'1010.0
2014-Aug-19 15:33N 55°14' E 013°04'1010.2
2014-Aug-19 14:33N 55°16' E 012°47'7 7.1
2014-Aug-19 13:33N 55°22' E 012°39'9 9.0
2014-Aug-19 12:33N 55°30' E 012°41'1010.3
2014-Aug-19 11:33N 55°41' E 012°41'1010.2
2014-Aug-19 10:33N 55°51' E 012°40'9 9.5
2014-Aug-19 09:33N 56°00' E 012°38'10 9.9
2014-Aug-19 08:33N 56°08' E 012°27'1010.5
2014-Aug-19 07:33N 56°14' E 012°12'54 8.8
2014-Aug-19 01:22N 57°05' E 011°38'8 9.8
2014-Aug-19 00:33N 57°13' E 011°34'1010.3
2014-Aug-18 23:33N 57°23' E 011°27'1010.5
2014-Aug-18 22:33N 57°32' E 011°16'1111.4
2014-Aug-18 21:33N 57°39' E 011°01'1111.0
2014-Aug-18 20:32N 57°47' E 010°45'1111.4
2014-Aug-18 19:33N 57°47' E 010°24'8311.3
2014-Aug-18 12:15N 57°41' E 007°50'63 9.3
2014-Aug-18 05:33N 58°00' E 005°58'1010.2
2014-Aug-18 04:33N 58°07' E 005°44'10 9.7
2014-Aug-18 03:33N 58°13' E 005°30'  
2014-Aug-15 13:34N 66°17' E 012°19'  
Track history (hours):
 
Tides and Currents Weather Stations Pressure Air Temp Water Temp Dewpoint Dewpoint Depression Visibility Wind Speed Wind Dir Waves Ship Positions

Lehmann Sound

Last reported at 2014-Aug-23 03:31 UTC. Time now 2014-Aug-23 05:37 UTC.
Position N 59°41' E 024°10'.

Length 90 m; draft 4.2 m.

Type: Cargo ship. MMSI: 305476000.

Date/timePositionNaut miles runAvg speedWind from/ knotsBaromVisibWave heightAir tempDewpointWater temp
2014-Aug-23 03:31N 59°41' E 024°10'1010.8
2014-Aug-23 02:33N 59°39' E 023°50'1110.5
2014-Aug-23 01:33N 59°36' E 023°30'9 8.8
2014-Aug-23 00:29N 59°37' E 023°12'9 9.8
2014-Aug-22 23:33N 59°45' E 023°03'7 6.9
2014-Aug-22 22:33N 59°49' E 023°15'8 8.5
2014-Aug-22 21:33N 59°56' E 023°22'8 8.3
2014-Aug-22 20:33N 60°03' E 023°31'3 2.5
2014-Aug-22 19:28N 60°06' E 023°33'0 0.0
2014-Aug-22 16:16N 60°06' E 023°33'0 0.0
2014-Aug-22 15:28N 60°06' E 023°33'0 0.0
2014-Aug-22 11:19N 60°06' E 023°33'0 0.0
2014-Aug-22 10:16N 60°06' E 023°33'0 0.0
2014-Aug-22 09:16N 60°06' E 023°33'0 0.0
2014-Aug-22 08:10N 60°06' E 023°33'0 0.0
2014-Aug-22 07:22N 60°06' E 023°33'0 0.0
2014-Aug-22 04:07N 60°06' E 023°33'0 0.0
2014-Aug-22 03:31N 60°06' E 023°33'0 0.0
2014-Aug-22 02:22N 60°06' E 023°33'0 0.0
2014-Aug-22 01:22N 60°06' E 023°33'0 0.0
2014-Aug-22 00:19N 60°06' E 023°33'0 0.0
2014-Aug-21 23:10N 60°06' E 023°33'0 0.0
2014-Aug-21 22:22N 60°06' E 023°33'0 0.0
2014-Aug-21 21:16N 60°06' E 023°33'0 0.0
2014-Aug-21 20:31N 60°06' E 023°33'0 0.0
2014-Aug-21 19:28N 60°06' E 023°33'0 0.0
2014-Aug-21 18:31N 60°06' E 023°33'0 0.0
2014-Aug-21 17:28N 60°06' E 023°33'0 0.0
2014-Aug-21 16:28N 60°06' E 023°33'5 6.1
2014-Aug-21 15:33N 60°01' E 023°28'8 8.3
2014-Aug-21 14:33N 59°54' E 023°19'8 8.1
2014-Aug-21 13:32N 59°48' E 023°08'308 9.5
2014-Aug-20 05:10N 56°00' E 016°37'610.1
2014-Aug-20 04:33N 55°57' E 016°28'2010.1
2014-Aug-20 02:33N 55°47' E 015°56'41 9.9
2014-Aug-19 22:26N 55°28' E 014°54'11 9.7
2014-Aug-19 21:17N 55°22' E 014°37'7 9.8
2014-Aug-19 20:33N 55°17' E 014°28'10 9.4
2014-Aug-19 19:32N 55°11' E 014°14'2510.1
2014-Aug-19 17:06N 55°12' E 013°31'610.3
2014-Aug-19 16:33N 55°13' E 013°21'1010.0
2014-Aug-19 15:33N 55°14' E 013°04'1010.2
2014-Aug-19 14:33N 55°16' E 012°47'7 7.1
2014-Aug-19 13:33N 55°22' E 012°39'9 9.0
2014-Aug-19 12:33N 55°30' E 012°41'1010.3
2014-Aug-19 11:33N 55°41' E 012°41'1010.2
2014-Aug-19 10:33N 55°51' E 012°40'9 9.5
2014-Aug-19 09:33N 56°00' E 012°38'10 9.9
2014-Aug-19 08:33N 56°08' E 012°27'1010.5
2014-Aug-19 07:33N 56°14' E 012°12'54 8.8
2014-Aug-19 01:22N 57°05' E 011°38'8 9.8
2014-Aug-19 00:33N 57°13' E 011°34'1010.3
2014-Aug-18 23:33N 57°23' E 011°27'1010.5
2014-Aug-18 22:33N 57°32' E 011°16'1111.4
2014-Aug-18 21:33N 57°39' E 011°01'1111.0
2014-Aug-18 20:32N 57°47' E 010°45'1111.4
2014-Aug-18 19:33N 57°47' E 010°24'8311.3
2014-Aug-18 12:15N 57°41' E 007°50'63 9.3
2014-Aug-18 05:33N 58°00' E 005°58'1010.2
2014-Aug-18 04:33N 58°07' E 005°44'10 9.7
2014-Aug-18 03:33N 58°13' E 005°30'  
2014-Aug-15 13:34N 66°17' E 012°19'  

Dump ship's entire track history